sensor_id;sensor_type;location;lat;lon;timestamp;P1;durP1;ratioP1;P2;durP2;ratioP2
65238;SDS011;51827;51.186;6.926;2022-11-06T00:00:15;6.27;;;2.40;;
65238;SDS011;51827;51.186;6.926;2022-11-06T00:01:17;4.63;;;2.30;;
65238;SDS011;51827;51.186;6.926;2022-11-06T00:02:17;4.07;;;2.30;;
65238;SDS011;51827;51.186;6.926;2022-11-06T00:03:17;5.80;;;2.57;;
65238;SDS011;51827;51.186;6.926;2022-11-06T00:04:18;4.13;;;2.10;;
65238;SDS011;51827;51.186;6.926;2022-11-06T00:05:18;3.83;;;2.17;;
65238;SDS011;51827;51.186;6.926;2022-11-06T00:06:18;4.50;;;2.40;;
65238;SDS011;51827;51.186;6.926;2022-11-06T00:07:19;8.85;;;2.85;;
65238;SDS011;51827;51.186;6.926;2022-11-06T00:08:26;4.80;;;2.30;;
65238;SDS011;51827;51.186;6.926;2022-11-06T00:09:28;5.00;;;2.38;;
65238;SDS011;51827;51.186;6.926;2022-11-06T00:10:28;5.13;;;2.70;;
65238;SDS011;51827;51.186;6.926;2022-11-06T00:11:29;5.30;;;2.60;;
65238;SDS011;51827;51.186;6.926;2022-11-06T00:12:29;4.13;;;2.10;;
65238;SDS011;51827;51.186;6.926;2022-11-06T00:13:29;4.17;;;2.27;;
65238;SDS011;51827;51.186;6.926;2022-11-06T00:14:30;5.97;;;2.17;;
65238;SDS011;51827;51.186;6.926;2022-11-06T00:15:30;4.80;;;2.43;;
65238;SDS011;51827;51.186;6.926;2022-11-06T00:16:31;5.25;;;2.42;;
65238;SDS011;51827;51.186;6.926;2022-11-06T00:17:31;3.80;;;2.20;;
65238;SDS011;51827;51.186;6.926;2022-11-06T00:18:32;3.95;;;2.20;;
65238;SDS011;51827;51.186;6.926;2022-11-06T00:19:33;4.03;;;2.20;;
65238;SDS011;51827;51.186;6.926;2022-11-06T00:20:33;3.90;;;2.40;;
65238;SDS011;51827;51.186;6.926;2022-11-06T00:21:34;4.10;;;2.20;;
65238;SDS011;51827;51.186;6.926;2022-11-06T00:22:34;4.63;;;2.25;;
65238;SDS011;51827;51.186;6.926;2022-11-06T00:23:36;4.07;;;2.20;;
65238;SDS011;51827;51.186;6.926;2022-11-06T00:24:36;7.78;;;2.83;;
65238;SDS011;51827;51.186;6.926;2022-11-06T00:25:39;4.77;;;2.30;;
65238;SDS011;51827;51.186;6.926;2022-11-06T00:26:40;4.65;;;2.10;;
65238;SDS011;51827;51.186;6.926;2022-11-06T00:27:41;8.60;;;2.40;;
65238;SDS011;51827;51.186;6.926;2022-11-06T00:28:42;4.07;;;2.37;;
65238;SDS011;51827;51.186;6.926;2022-11-06T00:29:43;4.10;;;2.15;;
65238;SDS011;51827;51.186;6.926;2022-11-06T00:30:43;3.93;;;2.63;;
65238;SDS011;51827;51.186;6.926;2022-11-06T00:31:43;3.60;;;2.00;;
65238;SDS011;51827;51.186;6.926;2022-11-06T00:32:43;3.80;;;2.10;;
65238;SDS011;51827;51.186;6.926;2022-11-06T00:33:44;4.33;;;2.40;;
65238;SDS011;51827;51.186;6.926;2022-11-06T00:34:45;3.97;;;2.03;;
65238;SDS011;51827;51.186;6.926;2022-11-06T00:36:46;5.30;;;2.27;;
65238;SDS011;51827;51.186;6.926;2022-11-06T00:37:46;3.47;;;2.23;;
65238;SDS011;51827;51.186;6.926;2022-11-06T00:38:46;3.93;;;2.07;;
65238;SDS011;51827;51.186;6.926;2022-11-06T00:39:50;4.05;;;2.20;;
65238;SDS011;51827;51.186;6.926;2022-11-06T00:40:50;5.20;;;1.90;;
65238;SDS011;51827;51.186;6.926;2022-11-06T00:41:51;3.43;;;2.17;;
65238;SDS011;51827;51.186;6.926;2022-11-06T00:42:54;3.23;;;2.10;;
65238;SDS011;51827;51.186;6.926;2022-11-06T00:43:56;4.25;;;2.42;;
65238;SDS011;51827;51.186;6.926;2022-11-06T00:44:58;4.72;;;2.30;;
65238;SDS011;51827;51.186;6.926;2022-11-06T00:46:09;3.07;;;2.00;;
65238;SDS011;51827;51.186;6.926;2022-11-06T00:47:11;4.38;;;2.30;;
65238;SDS011;51827;51.186;6.926;2022-11-06T00:48:11;5.30;;;2.38;;
65238;SDS011;51827;51.186;6.926;2022-11-06T00:49:11;3.97;;;2.23;;
65238;SDS011;51827;51.186;6.926;2022-11-06T00:50:12;4.55;;;2.20;;
65238;SDS011;51827;51.186;6.926;2022-11-06T00:51:13;4.93;;;2.17;;
65238;SDS011;51827;51.186;6.926;2022-11-06T00:52:18;4.70;;;2.20;;
65238;SDS011;51827;51.186;6.926;2022-11-06T00:53:19;3.13;;;2.00;;
65238;SDS011;51827;51.186;6.926;2022-11-06T00:54:19;3.87;;;2.20;;
65238;SDS011;51827;51.186;6.926;2022-11-06T00:55:19;4.55;;;2.30;;
65238;SDS011;51827;51.186;6.926;2022-11-06T00:56:21;3.15;;;2.03;;
65238;SDS011;51827;51.186;6.926;2022-11-06T00:57:22;3.78;;;2.03;;
65238;SDS011;51827;51.186;6.926;2022-11-06T00:58:22;2.93;;;1.80;;
65238;SDS011;51827;51.186;6.926;2022-11-06T00:59:22;4.60;;;2.10;;
65238;SDS011;51827;51.186;6.926;2022-11-06T01:00:23;4.50;;;2.00;;
65238;SDS011;51827;51.186;6.926;2022-11-06T01:01:24;4.13;;;2.20;;
65238;SDS011;51827;51.186;6.926;2022-11-06T01:02:26;4.65;;;2.30;;
65238;SDS011;51827;51.186;6.926;2022-11-06T01:03:26;3.03;;;1.90;;
65238;SDS011;51827;51.186;6.926;2022-11-06T01:04:26;4.50;;;2.20;;
65238;SDS011;51827;51.186;6.926;2022-11-06T01:05:27;4.93;;;2.20;;
65238;SDS011;51827;51.186;6.926;2022-11-06T01:06:28;3.57;;;1.90;;
65238;SDS011;51827;51.186;6.926;2022-11-06T01:07:30;4.47;;;2.10;;
65238;SDS011;51827;51.186;6.926;2022-11-06T01:08:31;4.03;;;2.13;;
65238;SDS011;51827;51.186;6.926;2022-11-06T01:09:31;5.73;;;2.20;;
65238;SDS011;51827;51.186;6.926;2022-11-06T01:10:31;3.10;;;1.90;;
65238;SDS011;51827;51.186;6.926;2022-11-06T01:11:32;4.73;;;2.07;;
65238;SDS011;51827;51.186;6.926;2022-11-06T01:12:39;3.13;;;2.08;;
65238;SDS011;51827;51.186;6.926;2022-11-06T01:13:39;5.03;;;1.80;;
65238;SDS011;51827;51.186;6.926;2022-11-06T01:14:40;3.95;;;2.10;;
65238;SDS011;51827;51.186;6.926;2022-11-06T01:15:41;4.25;;;2.20;;
65238;SDS011;51827;51.186;6.926;2022-11-06T01:16:41;3.43;;;1.97;;
65238;SDS011;51827;51.186;6.926;2022-11-06T01:17:42;4.18;;;2.10;;
65238;SDS011;51827;51.186;6.926;2022-11-06T01:18:43;4.60;;;2.23;;
65238;SDS011;51827;51.186;6.926;2022-11-06T01:19:44;4.10;;;2.15;;
65238;SDS011;51827;51.186;6.926;2022-11-06T01:20:44;3.50;;;2.00;;
65238;SDS011;51827;51.186;6.926;2022-11-06T01:21:45;3.57;;;2.00;;
65238;SDS011;51827;51.186;6.926;2022-11-06T01:22:48;3.90;;;1.88;;
65238;SDS011;51827;51.186;6.926;2022-11-06T01:23:55;3.70;;;2.00;;
65238;SDS011;51827;51.186;6.926;2022-11-06T01:24:57;4.13;;;1.90;;
65238;SDS011;51827;51.186;6.926;2022-11-06T01:25:58;6.03;;;2.20;;
65238;SDS011;51827;51.186;6.926;2022-11-06T01:26:59;3.90;;;1.85;;
65238;SDS011;51827;51.186;6.926;2022-11-06T01:27:59;3.77;;;2.10;;
65238;SDS011;51827;51.186;6.926;2022-11-06T01:29:00;3.47;;;1.90;;
65238;SDS011;51827;51.186;6.926;2022-11-06T01:30:00;5.70;;;2.22;;
65238;SDS011;51827;51.186;6.926;2022-11-06T01:31:01;2.57;;;1.73;;
65238;SDS011;51827;51.186;6.926;2022-11-06T01:32:04;4.03;;;2.03;;
65238;SDS011;51827;51.186;6.926;2022-11-06T01:33:04;3.95;;;2.10;;
65238;SDS011;51827;51.186;6.926;2022-11-06T01:34:04;4.43;;;2.00;;
65238;SDS011;51827;51.186;6.926;2022-11-06T01:35:05;3.35;;;1.90;;
65238;SDS011;51827;51.186;6.926;2022-11-06T01:36:09;2.67;;;1.70;;
65238;SDS011;51827;51.186;6.926;2022-11-06T01:37:13;4.50;;;2.10;;
65238;SDS011;51827;51.186;6.926;2022-11-06T01:38:13;4.50;;;2.00;;
65238;SDS011;51827;51.186;6.926;2022-11-06T01:39:14;2.78;;;1.63;;
65238;SDS011;51827;51.186;6.926;2022-11-06T01:40:15;3.17;;;1.95;;
65238;SDS011;51827;51.186;6.926;2022-11-06T01:41:25;7.27;;;2.23;;
65238;SDS011;51827;51.186;6.926;2022-11-06T01:42:27;5.50;;;2.30;;
65238;SDS011;51827;51.186;6.926;2022-11-06T01:45:44;2.87;;;1.83;;
65238;SDS011;51827;51.186;6.926;2022-11-06T01:46:47;3.92;;;1.90;;
65238;SDS011;51827;51.186;6.926;2022-11-06T01:47:47;3.60;;;2.10;;
65238;SDS011;51827;51.186;6.926;2022-11-06T01:48:49;2.88;;;1.80;;
65238;SDS011;51827;51.186;6.926;2022-11-06T01:49:59;3.42;;;1.70;;
65238;SDS011;51827;51.186;6.926;2022-11-06T01:51:03;5.40;;;1.92;;
65238;SDS011;51827;51.186;6.926;2022-11-06T01:52:06;2.88;;;1.70;;
65238;SDS011;51827;51.186;6.926;2022-11-06T01:53:09;4.57;;;1.80;;
65238;SDS011;51827;51.186;6.926;2022-11-06T01:54:11;6.18;;;1.90;;
65238;SDS011;51827;51.186;6.926;2022-11-06T01:56:24;5.15;;;2.00;;
65238;SDS011;51827;51.186;6.926;2022-11-06T01:57:24;3.43;;;1.90;;
65238;SDS011;51827;51.186;6.926;2022-11-06T01:58:25;4.30;;;2.00;;
65238;SDS011;51827;51.186;6.926;2022-11-06T01:59:29;4.53;;;1.92;;
65238;SDS011;51827;51.186;6.926;2022-11-06T02:00:32;5.43;;;2.10;;
65238;SDS011;51827;51.186;6.926;2022-11-06T02:01:33;4.07;;;2.03;;
65238;SDS011;51827;51.186;6.926;2022-11-06T02:02:33;4.53;;;2.20;;
65238;SDS011;51827;51.186;6.926;2022-11-06T02:03:35;3.03;;;1.70;;
65238;SDS011;51827;51.186;6.926;2022-11-06T02:04:37;4.13;;;1.90;;
65238;SDS011;51827;51.186;6.926;2022-11-06T02:05:41;4.80;;;2.30;;
65238;SDS011;51827;51.186;6.926;2022-11-06T02:06:42;2.85;;;1.70;;
65238;SDS011;51827;51.186;6.926;2022-11-06T02:07:44;3.00;;;1.70;;
65238;SDS011;51827;51.186;6.926;2022-11-06T02:08:44;3.65;;;1.90;;
65238;SDS011;51827;51.186;6.926;2022-11-06T02:09:45;3.78;;;1.88;;
65238;SDS011;51827;51.186;6.926;2022-11-06T02:10:46;4.47;;;2.17;;
65238;SDS011;51827;51.186;6.926;2022-11-06T02:11:53;3.75;;;2.03;;
65238;SDS011;51827;51.186;6.926;2022-11-06T02:28:31;3.42;;;1.80;;
65238;SDS011;51827;51.186;6.926;2022-11-06T02:29:41;5.00;;;1.92;;
65238;SDS011;51827;51.186;6.926;2022-11-06T02:30:50;2.88;;;1.90;;
65238;SDS011;51827;51.186;6.926;2022-11-06T02:31:53;3.13;;;1.80;;
65238;SDS011;51827;51.186;6.926;2022-11-06T02:33:02;2.35;;;1.60;;
65238;SDS011;51827;51.186;6.926;2022-11-06T02:34:09;3.70;;;1.77;;
65238;SDS011;51827;51.186;6.926;2022-11-06T02:35:15;3.25;;;1.60;;
65238;SDS011;51827;51.186;6.926;2022-11-06T02:36:29;4.30;;;1.60;;
65238;SDS011;51827;51.186;6.926;2022-11-06T02:37:34;4.70;;;1.75;;
65238;SDS011;51827;51.186;6.926;2022-11-06T02:38:38;3.38;;;1.70;;
65238;SDS011;51827;51.186;6.926;2022-11-06T02:39:41;4.53;;;1.90;;
65238;SDS011;51827;51.186;6.926;2022-11-06T02:40:46;5.22;;;1.88;;
65238;SDS011;51827;51.186;6.926;2022-11-06T02:41:51;2.38;;;1.60;;
65238;SDS011;51827;51.186;6.926;2022-11-06T02:42:55;2.90;;;1.60;;
65238;SDS011;51827;51.186;6.926;2022-11-06T02:43:59;4.60;;;1.90;;
65238;SDS011;51827;51.186;6.926;2022-11-06T02:45:02;3.17;;;1.50;;
65238;SDS011;51827;51.186;6.926;2022-11-06T02:46:05;2.90;;;1.50;;
65238;SDS011;51827;51.186;6.926;2022-11-06T02:47:11;4.65;;;1.58;;
65238;SDS011;51827;51.186;6.926;2022-11-06T02:48:14;3.30;;;1.70;;
65238;SDS011;51827;51.186;6.926;2022-11-06T02:49:23;2.85;;;1.63;;
65238;SDS011;51827;51.186;6.926;2022-11-06T02:50:37;3.05;;;1.65;;
65238;SDS011;51827;51.186;6.926;2022-11-06T02:51:45;4.93;;;1.70;;
65238;SDS011;51827;51.186;6.926;2022-11-06T02:52:50;2.05;;;1.42;;
65238;SDS011;51827;51.186;6.926;2022-11-06T02:54:04;3.35;;;1.60;;
65238;SDS011;51827;51.186;6.926;2022-11-06T02:56:14;3.95;;;1.40;;
65238;SDS011;51827;51.186;6.926;2022-11-06T02:57:17;4.68;;;1.70;;
65238;SDS011;51827;51.186;6.926;2022-11-06T02:58:21;2.97;;;1.80;;
65238;SDS011;51827;51.186;6.926;2022-11-06T02:59:29;2.70;;;1.52;;
65238;SDS011;51827;51.186;6.926;2022-11-06T03:00:36;2.10;;;1.40;;
65238;SDS011;51827;51.186;6.926;2022-11-06T03:01:48;3.78;;;1.45;;
65238;SDS011;51827;51.186;6.926;2022-11-06T03:02:57;2.97;;;1.63;;
65238;SDS011;51827;51.186;6.926;2022-11-06T03:04:02;3.67;;;1.80;;
65238;SDS011;51827;51.186;6.926;2022-11-06T03:05:10;2.55;;;1.60;;
65238;SDS011;51827;51.186;6.926;2022-11-06T03:08:52;2.90;;;1.70;;
65238;SDS011;51827;51.186;6.926;2022-11-06T03:09:57;2.25;;;1.48;;
65238;SDS011;51827;51.186;6.926;2022-11-06T03:14:26;4.28;;;1.70;;
65238;SDS011;51827;51.186;6.926;2022-11-06T03:15:33;3.42;;;1.80;;
65238;SDS011;51827;51.186;6.926;2022-11-06T03:18:11;4.65;;;1.90;;
65238;SDS011;51827;51.186;6.926;2022-11-06T03:19:28;2.67;;;1.45;;
65238;SDS011;51827;51.186;6.926;2022-11-06T03:20:41;3.33;;;1.77;;
65238;SDS011;51827;51.186;6.926;2022-11-06T03:23:19;3.75;;;1.50;;
65238;SDS011;51827;51.186;6.926;2022-11-06T03:24:26;3.20;;;1.50;;
65238;SDS011;51827;51.186;6.926;2022-11-06T03:27:19;3.03;;;1.52;;
65238;SDS011;51827;51.186;6.926;2022-11-06T03:28:25;3.05;;;1.42;;
65238;SDS011;51827;51.186;6.926;2022-11-06T03:29:38;3.20;;;1.83;;
65238;SDS011;51827;51.186;6.926;2022-11-06T03:30:49;3.38;;;1.77;;
65238;SDS011;51827;51.186;6.926;2022-11-06T03:31:55;3.15;;;1.52;;
65238;SDS011;51827;51.186;6.926;2022-11-06T03:33:01;2.97;;;1.45;;
65238;SDS011;51827;51.186;6.926;2022-11-06T03:34:11;3.03;;;1.60;;
65238;SDS011;51827;51.186;6.926;2022-11-06T03:35:18;2.67;;;1.65;;
65238;SDS011;51827;51.186;6.926;2022-11-06T03:36:33;3.88;;;1.50;;
65238;SDS011;51827;51.186;6.926;2022-11-06T03:37:41;3.15;;;1.70;;
65238;SDS011;51827;51.186;6.926;2022-11-06T03:38:50;3.00;;;1.50;;
65238;SDS011;51827;51.186;6.926;2022-11-06T03:39:55;3.22;;;1.70;;
65238;SDS011;51827;51.186;6.926;2022-11-06T03:41:05;2.67;;;1.50;;
65238;SDS011;51827;51.186;6.926;2022-11-06T03:42:10;3.75;;;1.50;;
65238;SDS011;51827;51.186;6.926;2022-11-06T03:43:13;3.95;;;1.60;;
65238;SDS011;51827;51.186;6.926;2022-11-06T03:44:17;3.72;;;1.42;;
65238;SDS011;51827;51.186;6.926;2022-11-06T03:45:21;3.65;;;1.60;;
65238;SDS011;51827;51.186;6.926;2022-11-06T03:46:25;3.78;;;1.80;;
65238;SDS011;51827;51.186;6.926;2022-11-06T03:47:35;3.40;;;1.63;;
65238;SDS011;51827;51.186;6.926;2022-11-06T03:48:47;2.88;;;1.40;;
65238;SDS011;51827;51.186;6.926;2022-11-06T03:50:02;3.47;;;1.60;;
65238;SDS011;51827;51.186;6.926;2022-11-06T03:51:16;3.17;;;1.73;;
65238;SDS011;51827;51.186;6.926;2022-11-06T03:52:26;2.65;;;1.77;;
65238;SDS011;51827;51.186;6.926;2022-11-06T03:53:39;3.40;;;1.42;;
65238;SDS011;51827;51.186;6.926;2022-11-06T03:54:44;3.88;;;1.50;;
65238;SDS011;51827;51.186;6.926;2022-11-06T03:55:58;3.38;;;1.67;;
65238;SDS011;51827;51.186;6.926;2022-11-06T03:57:08;2.80;;;1.40;;
65238;SDS011;51827;51.186;6.926;2022-11-06T03:58:12;2.42;;;1.40;;
65238;SDS011;51827;51.186;6.926;2022-11-06T03:59:16;4.80;;;1.55;;
65238;SDS011;51827;51.186;6.926;2022-11-06T04:00:17;4.57;;;1.60;;
65238;SDS011;51827;51.186;6.926;2022-11-06T04:01:20;2.10;;;1.33;;
65238;SDS011;51827;51.186;6.926;2022-11-06T04:02:27;3.65;;;1.40;;
65238;SDS011;51827;51.186;6.926;2022-11-06T04:03:32;4.22;;;1.55;;
65238;SDS011;51827;51.186;6.926;2022-11-06T04:04:44;3.22;;;1.40;;
65238;SDS011;51827;51.186;6.926;2022-11-06T04:05:50;3.58;;;1.50;;
65238;SDS011;51827;51.186;6.926;2022-11-06T04:06:55;4.85;;;1.90;;
65238;SDS011;51827;51.186;6.926;2022-11-06T04:07:59;4.10;;;1.40;;
65238;SDS011;51827;51.186;6.926;2022-11-06T04:09:00;5.03;;;1.65;;
65238;SDS011;51827;51.186;6.926;2022-11-06T04:10:04;2.67;;;1.42;;
65238;SDS011;51827;51.186;6.926;2022-11-06T04:11:07;3.03;;;1.55;;
65238;SDS011;51827;51.186;6.926;2022-11-06T04:12:11;3.42;;;1.55;;
65238;SDS011;51827;51.186;6.926;2022-11-06T04:13:14;2.65;;;1.20;;
65238;SDS011;51827;51.186;6.926;2022-11-06T04:14:16;3.17;;;1.45;;
65238;SDS011;51827;51.186;6.926;2022-11-06T04:15:18;2.13;;;1.35;;
65238;SDS011;51827;51.186;6.926;2022-11-06T04:16:20;3.08;;;1.50;;
65238;SDS011;51827;51.186;6.926;2022-11-06T04:18:22;3.45;;;1.35;;
65238;SDS011;51827;51.186;6.926;2022-11-06T04:19:23;3.20;;;1.53;;
65238;SDS011;51827;51.186;6.926;2022-11-06T04:20:23;4.13;;;2.10;;
65238;SDS011;51827;51.186;6.926;2022-11-06T04:22:58;3.05;;;1.50;;
65238;SDS011;51827;51.186;6.926;2022-11-06T04:24:24;3.80;;;1.42;;
65238;SDS011;51827;51.186;6.926;2022-11-06T04:26:30;1.73;;;1.23;;
65238;SDS011;51827;51.186;6.926;2022-11-06T04:34:55;2.65;;;1.50;;
65238;SDS011;51827;51.186;6.926;2022-11-06T04:36:06;2.92;;;1.50;;
65238;SDS011;51827;51.186;6.926;2022-11-06T04:37:24;3.83;;;1.40;;
65238;SDS011;51827;51.186;6.926;2022-11-06T04:38:43;3.63;;;1.17;;
65238;SDS011;51827;51.186;6.926;2022-11-06T04:40:57;3.22;;;1.40;;
65238;SDS011;51827;51.186;6.926;2022-11-06T04:42:29;3.90;;;1.40;;
65238;SDS011;51827;51.186;6.926;2022-11-06T04:44:01;3.47;;;1.50;;
65238;SDS011;51827;51.186;6.926;2022-11-06T04:45:03;2.95;;;1.50;;
65238;SDS011;51827;51.186;6.926;2022-11-06T04:46:10;3.25;;;1.50;;
65238;SDS011;51827;51.186;6.926;2022-11-06T04:47:16;2.53;;;1.45;;
65238;SDS011;51827;51.186;6.926;2022-11-06T04:48:19;3.05;;;1.40;;
65238;SDS011;51827;51.186;6.926;2022-11-06T04:49:21;4.07;;;1.40;;
65238;SDS011;51827;51.186;6.926;2022-11-06T04:50:23;3.08;;;1.45;;
65238;SDS011;51827;51.186;6.926;2022-11-06T04:51:27;2.92;;;1.30;;
65238;SDS011;51827;51.186;6.926;2022-11-06T04:52:31;3.28;;;1.50;;
65238;SDS011;51827;51.186;6.926;2022-11-06T04:53:32;3.42;;;1.55;;
65238;SDS011;51827;51.186;6.926;2022-11-06T04:54:34;2.78;;;1.40;;
65238;SDS011;51827;51.186;6.926;2022-11-06T04:55:48;3.72;;;1.52;;
65238;SDS011;51827;51.186;6.926;2022-11-06T04:56:51;2.97;;;1.48;;
65238;SDS011;51827;51.186;6.926;2022-11-06T04:57:57;2.78;;;1.30;;
65238;SDS011;51827;51.186;6.926;2022-11-06T04:58:57;2.27;;;1.20;;
65238;SDS011;51827;51.186;6.926;2022-11-06T04:59:58;5.40;;;1.87;;
65238;SDS011;51827;51.186;6.926;2022-11-06T05:00:58;3.07;;;1.30;;
65238;SDS011;51827;51.186;6.926;2022-11-06T05:01:58;2.53;;;1.33;;
65238;SDS011;51827;51.186;6.926;2022-11-06T05:02:58;3.67;;;1.50;;
65238;SDS011;51827;51.186;6.926;2022-11-06T05:03:59;3.53;;;1.37;;
65238;SDS011;51827;51.186;6.926;2022-11-06T05:04:59;3.40;;;1.30;;
65238;SDS011;51827;51.186;6.926;2022-11-06T05:05:59;3.53;;;1.63;;
65238;SDS011;51827;51.186;6.926;2022-11-06T05:06:59;2.33;;;1.20;;
65238;SDS011;51827;51.186;6.926;2022-11-06T05:08:01;2.57;;;1.30;;
65238;SDS011;51827;51.186;6.926;2022-11-06T05:09:01;3.83;;;1.33;;
65238;SDS011;51827;51.186;6.926;2022-11-06T05:10:02;2.85;;;1.38;;
65238;SDS011;51827;51.186;6.926;2022-11-06T05:11:03;2.15;;;1.25;;
65238;SDS011;51827;51.186;6.926;2022-11-06T05:12:03;2.85;;;1.40;;
65238;SDS011;51827;51.186;6.926;2022-11-06T05:13:04;3.05;;;1.35;;
65238;SDS011;51827;51.186;6.926;2022-11-06T05:14:04;4.10;;;1.50;;
65238;SDS011;51827;51.186;6.926;2022-11-06T05:15:05;2.97;;;1.30;;
65238;SDS011;51827;51.186;6.926;2022-11-06T05:16:05;2.85;;;1.20;;
65238;SDS011;51827;51.186;6.926;2022-11-06T05:17:06;2.55;;;1.30;;
65238;SDS011;51827;51.186;6.926;2022-11-06T05:18:06;2.67;;;1.33;;
65238;SDS011;51827;51.186;6.926;2022-11-06T05:19:07;2.30;;;1.10;;
65238;SDS011;51827;51.186;6.926;2022-11-06T05:20:07;3.20;;;1.52;;
65238;SDS011;51827;51.186;6.926;2022-11-06T05:21:08;3.55;;;1.40;;
65238;SDS011;51827;51.186;6.926;2022-11-06T05:22:08;3.10;;;1.38;;
65238;SDS011;51827;51.186;6.926;2022-11-06T05:23:09;3.17;;;1.35;;
65238;SDS011;51827;51.186;6.926;2022-11-06T05:24:09;3.60;;;1.50;;
65238;SDS011;51827;51.186;6.926;2022-11-06T05:25:09;2.92;;;1.30;;
65238;SDS011;51827;51.186;6.926;2022-11-06T05:26:10;2.43;;;1.20;;
65238;SDS011;51827;51.186;6.926;2022-11-06T05:27:10;3.83;;;1.40;;
65238;SDS011;51827;51.186;6.926;2022-11-06T05:28:10;2.77;;;1.40;;
65238;SDS011;51827;51.186;6.926;2022-11-06T05:29:11;3.50;;;1.40;;
65238;SDS011;51827;51.186;6.926;2022-11-06T05:30:12;3.80;;;1.60;;
65238;SDS011;51827;51.186;6.926;2022-11-06T05:31:12;2.33;;;1.30;;
65238;SDS011;51827;51.186;6.926;2022-11-06T05:32:12;3.60;;;1.40;;
65238;SDS011;51827;51.186;6.926;2022-11-06T05:33:13;3.77;;;1.23;;
65238;SDS011;51827;51.186;6.926;2022-11-06T05:34:13;2.63;;;1.30;;
65238;SDS011;51827;51.186;6.926;2022-11-06T05:35:13;3.77;;;1.40;;
65238;SDS011;51827;51.186;6.926;2022-11-06T05:36:14;3.08;;;1.38;;
65238;SDS011;51827;51.186;6.926;2022-11-06T05:37:14;2.80;;;1.40;;
65238;SDS011;51827;51.186;6.926;2022-11-06T05:38:14;2.33;;;1.27;;
65238;SDS011;51827;51.186;6.926;2022-11-06T05:39:15;3.28;;;1.42;;
65238;SDS011;51827;51.186;6.926;2022-11-06T05:40:15;2.43;;;1.30;;
65238;SDS011;51827;51.186;6.926;2022-11-06T05:41:16;2.17;;;1.13;;
65238;SDS011;51827;51.186;6.926;2022-11-06T05:42:16;1.80;;;1.10;;
65238;SDS011;51827;51.186;6.926;2022-11-06T05:43:16;2.37;;;1.20;;
65238;SDS011;51827;51.186;6.926;2022-11-06T05:44:16;2.93;;;1.30;;
65238;SDS011;51827;51.186;6.926;2022-11-06T05:45:17;2.83;;;1.33;;
65238;SDS011;51827;51.186;6.926;2022-11-06T05:46:17;2.70;;;1.30;;
65238;SDS011;51827;51.186;6.926;2022-11-06T05:47:17;2.80;;;1.37;;
65238;SDS011;51827;51.186;6.926;2022-11-06T05:48:18;3.75;;;1.33;;
65238;SDS011;51827;51.186;6.926;2022-11-06T05:49:18;3.45;;;1.40;;
65238;SDS011;51827;51.186;6.926;2022-11-06T05:50:18;2.97;;;1.37;;
65238;SDS011;51827;51.186;6.926;2022-11-06T05:51:19;2.73;;;1.20;;
65238;SDS011;51827;51.186;6.926;2022-11-06T05:52:19;3.23;;;1.57;;
65238;SDS011;51827;51.186;6.926;2022-11-06T05:53:19;3.23;;;1.50;;
65238;SDS011;51827;51.186;6.926;2022-11-06T05:54:19;2.10;;;1.17;;
65238;SDS011;51827;51.186;6.926;2022-11-06T05:55:20;3.70;;;1.30;;
65238;SDS011;51827;51.186;6.926;2022-11-06T05:56:20;3.17;;;1.33;;
65238;SDS011;51827;51.186;6.926;2022-11-06T05:57:20;2.40;;;1.10;;
65238;SDS011;51827;51.186;6.926;2022-11-06T05:58:20;3.07;;;1.17;;
65238;SDS011;51827;51.186;6.926;2022-11-06T05:59:21;2.60;;;1.37;;
65238;SDS011;51827;51.186;6.926;2022-11-06T06:00:21;3.50;;;1.37;;
65238;SDS011;51827;51.186;6.926;2022-11-06T06:01:21;3.47;;;1.33;;
65238;SDS011;51827;51.186;6.926;2022-11-06T06:02:21;2.30;;;1.50;;
65238;SDS011;51827;51.186;6.926;2022-11-06T06:03:22;2.00;;;1.10;;
65238;SDS011;51827;51.186;6.926;2022-11-06T06:04:23;3.05;;;1.35;;
65238;SDS011;51827;51.186;6.926;2022-11-06T06:05:24;2.33;;;1.30;;
65238;SDS011;51827;51.186;6.926;2022-11-06T06:06:24;2.83;;;1.20;;
65238;SDS011;51827;51.186;6.926;2022-11-06T06:07:25;5.80;;;1.45;;
65238;SDS011;51827;51.186;6.926;2022-11-06T06:08:25;4.50;;;1.43;;
65238;SDS011;51827;51.186;6.926;2022-11-06T06:09:25;2.73;;;1.40;;
65238;SDS011;51827;51.186;6.926;2022-11-06T06:10:25;3.70;;;1.60;;
65238;SDS011;51827;51.186;6.926;2022-11-06T06:11:26;2.97;;;1.30;;
65238;SDS011;51827;51.186;6.926;2022-11-06T06:12:26;2.50;;;1.30;;
65238;SDS011;51827;51.186;6.926;2022-11-06T06:13:26;2.00;;;1.30;;
65238;SDS011;51827;51.186;6.926;2022-11-06T06:14:26;3.50;;;1.30;;
65238;SDS011;51827;51.186;6.926;2022-11-06T06:15:27;2.10;;;1.10;;
65238;SDS011;51827;51.186;6.926;2022-11-06T06:16:27;3.23;;;1.30;;
65238;SDS011;51827;51.186;6.926;2022-11-06T06:17:27;2.10;;;1.13;;
65238;SDS011;51827;51.186;6.926;2022-11-06T06:18:27;2.93;;;1.20;;
65238;SDS011;51827;51.186;6.926;2022-11-06T06:19:28;3.60;;;1.37;;
65238;SDS011;51827;51.186;6.926;2022-11-06T06:20:28;3.47;;;1.30;;
65238;SDS011;51827;51.186;6.926;2022-11-06T06:21:28;3.27;;;1.30;;
65238;SDS011;51827;51.186;6.926;2022-11-06T06:22:28;2.73;;;1.10;;
65238;SDS011;51827;51.186;6.926;2022-11-06T06:23:29;2.93;;;1.50;;
65238;SDS011;51827;51.186;6.926;2022-11-06T06:24:29;1.63;;;1.10;;
65238;SDS011;51827;51.186;6.926;2022-11-06T06:25:29;2.40;;;1.10;;
65238;SDS011;51827;51.186;6.926;2022-11-06T06:26:30;2.42;;;1.25;;
65238;SDS011;51827;51.186;6.926;2022-11-06T06:27:31;3.15;;;1.40;;
65238;SDS011;51827;51.186;6.926;2022-11-06T06:28:31;3.17;;;1.33;;
65238;SDS011;51827;51.186;6.926;2022-11-06T06:29:31;3.33;;;1.37;;
65238;SDS011;51827;51.186;6.926;2022-11-06T06:30:31;3.72;;;1.40;;
65238;SDS011;51827;51.186;6.926;2022-11-06T06:31:32;2.17;;;1.10;;
65238;SDS011;51827;51.186;6.926;2022-11-06T06:32:32;3.20;;;1.30;;
65238;SDS011;51827;51.186;6.926;2022-11-06T06:33:32;2.13;;;1.20;;
65238;SDS011;51827;51.186;6.926;2022-11-06T06:34:33;2.90;;;1.20;;
65238;SDS011;51827;51.186;6.926;2022-11-06T06:35:33;2.60;;;1.20;;
65238;SDS011;51827;51.186;6.926;2022-11-06T06:36:34;2.22;;;1.23;;
65238;SDS011;51827;51.186;6.926;2022-11-06T06:37:34;2.93;;;1.13;;
65238;SDS011;51827;51.186;6.926;2022-11-06T06:38:34;3.45;;;1.25;;
65238;SDS011;51827;51.186;6.926;2022-11-06T06:39:35;2.83;;;1.20;;
65238;SDS011;51827;51.186;6.926;2022-11-06T06:40:35;2.80;;;1.20;;
65238;SDS011;51827;51.186;6.926;2022-11-06T06:41:35;3.13;;;1.23;;
65238;SDS011;51827;51.186;6.926;2022-11-06T06:42:35;2.10;;;1.10;;
65238;SDS011;51827;51.186;6.926;2022-11-06T06:43:36;2.83;;;1.30;;
65238;SDS011;51827;51.186;6.926;2022-11-06T06:44:36;2.77;;;1.20;;
65238;SDS011;51827;51.186;6.926;2022-11-06T06:45:36;2.57;;;1.10;;
65238;SDS011;51827;51.186;6.926;2022-11-06T06:46:36;1.80;;;1.20;;
65238;SDS011;51827;51.186;6.926;2022-11-06T06:47:37;3.70;;;1.38;;
65238;SDS011;51827;51.186;6.926;2022-11-06T06:48:37;4.77;;;1.20;;
65238;SDS011;51827;51.186;6.926;2022-11-06T06:49:37;4.53;;;1.37;;
65238;SDS011;51827;51.186;6.926;2022-11-06T06:50:37;2.27;;;1.20;;
65238;SDS011;51827;51.186;6.926;2022-11-06T06:51:38;2.57;;;1.37;;
65238;SDS011;51827;51.186;6.926;2022-11-06T06:52:38;1.77;;;1.20;;
65238;SDS011;51827;51.186;6.926;2022-11-06T06:53:38;4.20;;;1.43;;
65238;SDS011;51827;51.186;6.926;2022-11-06T06:54:38;4.73;;;1.30;;
65238;SDS011;51827;51.186;6.926;2022-11-06T06:55:39;3.72;;;1.30;;
65238;SDS011;51827;51.186;6.926;2022-11-06T06:56:39;1.50;;;1.00;;
65238;SDS011;51827;51.186;6.926;2022-11-06T06:57:39;3.07;;;1.20;;
65238;SDS011;51827;51.186;6.926;2022-11-06T06:58:40;6.85;;;1.40;;
65238;SDS011;51827;51.186;6.926;2022-11-06T06:59:40;3.27;;;1.40;;
65238;SDS011;51827;51.186;6.926;2022-11-06T07:00:40;2.33;;;1.50;;
65238;SDS011;51827;51.186;6.926;2022-11-06T07:01:41;2.60;;;1.20;;
65238;SDS011;51827;51.186;6.926;2022-11-06T07:02:41;4.10;;;1.40;;